createdAt,value
2022-09-07T00:00:08.871Z,100524.57
2022-09-07T00:02:56.638Z,100518.07
2022-09-07T00:05:25.073Z,100515.76
2022-09-07T00:07:53.075Z,100514.95
2022-09-07T00:10:21.482Z,100516.55
2022-09-07T00:12:50.276Z,100518.64
2022-09-07T00:15:18.941Z,100514.30
2022-09-07T00:17:46.810Z,100518.06
2022-09-07T00:20:15.478Z,100520.17
2022-09-07T00:22:43.733Z,100519.53
2022-09-07T00:25:12.149Z,100520.30
2022-09-07T00:27:40.801Z,100515.36
2022-09-07T00:30:08.967Z,100512.36
2022-09-07T00:32:37.090Z,100509.88
2022-09-07T00:35:05.261Z,100512.32
2022-09-07T00:37:33.571Z,100511.59
2022-09-07T00:40:01.585Z,100511.73
2022-09-07T00:42:29.972Z,100513.08
2022-09-07T00:45:01.345Z,100512.85
2022-09-07T00:47:38.181Z,100509.57
2022-09-07T00:50:11.453Z,100509.05
2022-09-07T00:52:40.509Z,100503.59
2022-09-07T00:55:11.026Z,100500.89
2022-09-07T00:57:41.609Z,100502.01
2022-09-07T01:00:09.924Z,100507.19
2022-09-07T01:02:38.072Z,100504.86
2022-09-07T01:05:19.314Z,100502.98
2022-09-07T01:07:47.810Z,100504.35
2022-09-07T01:10:15.969Z,100498.08
2022-09-07T01:12:43.803Z,100495.02
2022-09-07T01:15:11.687Z,100497.86
2022-09-07T01:17:59.328Z,100490.88
2022-09-07T01:20:50.822Z,100487.45
2022-09-07T01:23:36.004Z,100485.83
2022-09-07T01:26:04.293Z,100483.07
2022-09-07T01:28:35.405Z,100484.89
2022-09-07T01:31:06.216Z,100484.17
2022-09-07T01:33:37.370Z,100484.48
2022-09-07T01:36:05.445Z,100484.02
2022-09-07T01:38:38.452Z,100478.52
2022-09-07T01:41:28.075Z,100484.80
2022-09-07T01:44:02.473Z,100486.02
2022-09-07T01:46:35.816Z,100479.96
2022-09-07T01:49:08.661Z,100475.60
2022-09-07T01:51:38.648Z,100469.56
2022-09-07T01:54:10.927Z,100465.23
2022-09-07T01:56:43.882Z,100470.48
2022-09-07T01:59:19.773Z,100472.67
2022-09-07T02:01:52.536Z,100470.14
2022-09-07T02:04:28.267Z,100471.60
2022-09-07T02:07:07.840Z,100467.95
2022-09-07T02:09:51.009Z,100462.80
2022-09-07T02:12:23.035Z,100463.02
2022-09-07T02:14:54.437Z,100470.06
2022-09-07T02:17:26.396Z,100475.70
2022-09-07T02:19:59.810Z,100474.67
2022-09-07T02:22:30.252Z,100476.14
2022-09-07T02:25:00.480Z,100477.40
2022-09-07T02:27:44.347Z,100477.10
2022-09-07T02:30:12.830Z,100474.44
2022-09-07T02:32:41.260Z,100473.34
2022-09-07T02:35:09.819Z,100467.86
2022-09-07T02:37:38.641Z,100472.79
2022-09-07T02:40:08.576Z,100478.59
2022-09-07T02:42:37.242Z,100481.27
2022-09-07T02:45:06.550Z,100477.70
2022-09-07T02:47:54.770Z,100474.17
2022-09-07T02:50:31.339Z,100470.75
2022-09-07T02:53:11.348Z,100466.42
2022-09-07T02:55:43.272Z,100460.70
2022-09-07T02:58:11.332Z,100457.15
2022-09-07T03:00:46.375Z,100452.98
2022-09-07T03:03:16.986Z,100444.90
2022-09-07T03:05:49.112Z,100441.63
2022-09-07T03:08:20.960Z,100442.92
2022-09-07T03:10:49.671Z,100453.58
2022-09-07T03:13:25.644Z,100452.10
2022-09-07T03:15:56.183Z,100458.65
2022-09-07T03:18:25.877Z,100463.50
2022-09-07T03:20:54.802Z,100462.52
2022-09-07T03:23:23.075Z,100462.23
2022-09-07T03:25:51.047Z,100465.00
2022-09-07T03:28:18.919Z,100466.45
2022-09-07T03:30:49.530Z,100468.04
2022-09-07T03:33:17.862Z,100467.80
2022-09-07T03:35:46.649Z,100468.89
2022-09-07T03:38:14.373Z,100470.41
2022-09-07T03:40:42.395Z,100475.23
2022-09-07T03:43:10.345Z,100477.79
2022-09-07T03:45:38.546Z,100477.58
2022-09-07T03:48:06.353Z,100477.80
2022-09-07T03:50:34.185Z,100473.75
2022-09-07T03:53:02.435Z,100468.06
2022-09-07T03:55:30.569Z,100470.83
2022-09-07T03:57:58.548Z,100470.23
2022-09-07T04:00:26.853Z,100468.48
2022-09-07T04:02:55.225Z,100469.84
2022-09-07T04:05:23.753Z,100472.45
2022-09-07T04:07:52.664Z,100472.38
2022-09-07T04:10:20.519Z,100471.77
2022-09-07T04:12:48.265Z,100473.92
2022-09-07T04:15:16.469Z,100475.72
2022-09-07T04:17:44.490Z,100477.84
2022-09-07T04:20:12.314Z,100477.70
2022-09-07T04:22:40.331Z,100474.16
2022-09-07T04:25:08.582Z,100478.36
2022-09-07T04:27:36.905Z,100479.30
2022-09-07T04:30:05.227Z,100481.33
2022-09-07T04:32:33.057Z,100480.69
2022-09-07T04:35:01.054Z,100482.57
2022-09-07T04:37:29.214Z,100480.44
2022-09-07T04:39:57.295Z,100480.15
2022-09-07T04:42:25.537Z,100481.42
2022-09-07T04:44:53.560Z,100480.80
2022-09-07T04:47:21.381Z,100486.45
2022-09-07T04:49:52.583Z,100488.50
2022-09-07T04:52:20.691Z,100488.83
2022-09-07T04:54:50.646Z,100486.12
2022-09-07T04:57:21.950Z,100487.92
2022-09-07T04:59:49.970Z,100488.73
2022-09-07T05:02:18.251Z,100487.58
2022-09-07T05:04:46.151Z,100489.94
2022-09-07T05:07:14.403Z,100487.45
2022-09-07T05:09:42.651Z,100490.26
2022-09-07T05:12:10.855Z,100487.27
2022-09-07T05:14:38.962Z,100492.12
2022-09-07T05:17:07.833Z,100493.98
2022-09-07T05:19:35.642Z,100502.84
2022-09-07T05:22:03.608Z,100509.50
2022-09-07T05:24:31.389Z,100507.64
2022-09-07T05:27:02.069Z,100506.65
2022-09-07T05:32:18.383Z,100497.94
2022-09-07T05:34:48.545Z,100505.13
2022-09-07T05:37:17.647Z,100500.86
2022-09-07T05:39:45.485Z,100503.20
2022-09-07T05:42:14.114Z,100504.71
2022-09-07T05:47:15.571Z,100512.52
2022-09-07T05:49:43.629Z,100505.69
2022-09-07T05:52:11.491Z,100506.34
2022-09-07T05:54:40.039Z,100506.36
2022-09-07T05:57:10.839Z,100506.17
2022-09-07T05:59:38.753Z,100504.31
2022-09-07T06:02:07.405Z,100502.15
2022-09-07T06:04:35.613Z,100505.48
2022-09-07T06:07:21.986Z,100504.06
2022-09-07T06:12:38.687Z,100496.60
2022-09-07T06:15:06.980Z,100496.32
2022-09-07T06:17:35.478Z,100500.73
2022-09-07T06:20:04.770Z,100503.64
2022-09-07T06:22:35.470Z,100501.10
2022-09-07T06:25:04.168Z,100502.14
2022-09-07T06:27:32.141Z,100510.84
2022-09-07T06:30:00.223Z,100512.56
2022-09-07T06:32:44.806Z,100511.56
2022-09-07T06:35:13.911Z,100517.45
2022-09-07T06:37:42.088Z,100520.63
2022-09-07T06:40:11.152Z,100517.27
2022-09-07T06:42:39.251Z,100514.66
2022-09-07T06:45:07.518Z,100512.84
2022-09-07T06:47:35.594Z,100515.24
2022-09-07T06:50:03.474Z,100520.80
2022-09-07T06:55:19.459Z,100521.31
2022-09-07T06:57:47.697Z,100525.88
2022-09-07T07:00:15.885Z,100522.55
2022-09-07T07:02:44.025Z,100526.12
2022-09-07T07:05:12.203Z,100524.64
2022-09-07T07:07:40.130Z,100527.05
2022-09-07T07:10:08.758Z,100521.59
2022-09-07T07:15:03.960Z,100522.22
2022-09-07T07:17:31.823Z,100524.71
2022-09-07T07:19:59.648Z,100522.45
2022-09-07T07:22:46.012Z,100525.30
2022-09-07T07:25:15.385Z,100524.77
2022-09-07T07:27:44.521Z,100519.24
2022-09-07T07:30:16.581Z,100515.45
2022-09-07T07:32:44.923Z,100514.12
2022-09-07T07:35:13.200Z,100512.92
2022-09-07T07:37:41.211Z,100512.05
2022-09-07T07:42:43.173Z,100512.24
2022-09-07T07:47:59.968Z,100516.09
2022-09-07T07:50:32.005Z,100517.33
2022-09-07T07:55:49.431Z,100524.23
2022-09-07T07:58:17.583Z,100519.11
2022-09-07T08:01:01.267Z,100522.98
2022-09-07T08:03:30.659Z,100525.48
2022-09-07T08:06:04.429Z,100525.81
2022-09-07T08:08:32.313Z,100533.00
2022-09-07T08:11:02.424Z,100526.38
2022-09-07T08:13:32.434Z,100528.54
2022-09-07T08:16:01.123Z,100528.46
2022-09-07T08:18:29.023Z,100530.05
2022-09-07T08:21:01.335Z,100522.17
2022-09-07T08:23:31.698Z,100521.48
2022-09-07T08:26:00.177Z,100523.06
2022-09-07T08:28:29.181Z,100518.89
2022-09-07T08:30:58.114Z,100514.88
2022-09-07T08:33:26.159Z,100511.48
2022-09-07T08:35:55.929Z,100511.41
2022-09-07T08:38:23.749Z,100513.25
2022-09-07T08:40:52.733Z,100509.36
2022-09-07T08:43:21.103Z,100505.67
2022-09-07T08:45:51.428Z,100499.66
2022-09-07T08:48:23.086Z,100502.45
2022-09-07T08:51:13.892Z,100499.66
2022-09-07T08:53:49.211Z,100498.27
2022-09-07T08:56:22.200Z,100495.38
2022-09-07T08:58:54.374Z,100494.70
2022-09-07T09:01:35.906Z,100489.45
2022-09-07T09:04:17.558Z,100489.77
2022-09-07T09:06:55.950Z,100490.15
2022-09-07T09:09:29.261Z,100485.07
2022-09-07T09:12:03.226Z,100482.76
2022-09-07T09:14:39.202Z,100479.94
2022-09-07T09:17:13.914Z,100474.52
2022-09-07T09:19:58.736Z,100470.09
2022-09-07T09:22:28.409Z,100470.05
2022-09-07T09:25:00.993Z,100464.67
2022-09-07T09:27:29.017Z,100465.48
2022-09-07T09:29:56.781Z,100467.92
2022-09-07T09:32:39.834Z,100470.72
2022-09-07T09:35:10.992Z,100474.84
2022-09-07T09:37:39.920Z,100475.61
2022-09-07T09:40:17.643Z,100475.64
2022-09-07T09:42:45.920Z,100474.40
2022-09-07T09:45:21.079Z,100472.91
2022-09-07T09:47:50.571Z,100477.23
2022-09-07T09:52:29.351Z,100476.68
2022-09-07T09:53:07.064Z,100469.77
2022-09-07T09:55:36.503Z,100470.60
2022-09-07T10:06:25.928Z,100463.55
2022-09-07T10:09:01.958Z,100465.20
2022-09-07T10:12:06.557Z,100458.21
2022-09-07T10:14:37.547Z,100455.69
2022-09-07T10:17:13.040Z,100455.77
2022-09-07T10:19:42.584Z,100452.08
2022-09-07T10:22:24.976Z,100453.09
2022-09-07T10:24:53.019Z,100448.77
2022-09-07T10:27:35.045Z,100445.25
2022-09-07T10:30:06.820Z,100442.48
2022-09-07T10:32:34.839Z,100440.27
2022-09-07T10:35:14.823Z,100438.52
2022-09-07T10:38:01.521Z,100436.88
2022-09-07T10:40:33.642Z,100432.89
2022-09-07T10:43:20.996Z,100431.11
2022-09-07T10:45:49.077Z,100435.95
2022-09-07T10:48:35.651Z,100430.70
2022-09-07T10:51:14.015Z,100428.08
2022-09-07T10:53:42.826Z,100425.61
2022-09-07T10:56:24.298Z,100425.27
2022-09-07T10:59:03.523Z,100426.70
2022-09-07T11:01:32.079Z,100431.66
2022-09-07T11:04:25.834Z,100426.46
2022-09-07T11:07:00.994Z,100423.75
2022-09-07T11:09:42.270Z,100425.60
2022-09-07T11:12:15.630Z,100419.49
2022-09-07T11:14:47.886Z,100417.89
2022-09-07T11:17:17.449Z,100420.59
2022-09-07T11:20:17.612Z,100418.18
2022-09-07T11:22:49.715Z,100417.94
2022-09-07T11:25:35.865Z,100416.44
2022-09-07T11:28:06.818Z,100411.48
2022-09-07T11:30:37.467Z,100412.01
2022-09-07T11:33:11.260Z,100406.75
2022-09-07T11:35:45.285Z,100405.02
2022-09-07T11:38:14.480Z,100407.95
2022-09-07T11:41:08.984Z,100408.34
2022-09-07T11:44:06.315Z,100402.84
2022-09-07T11:46:45.352Z,100401.42
2022-09-07T11:49:16.600Z,100397.95
2022-09-07T11:51:44.300Z,100398.67
2022-09-07T11:54:27.067Z,100398.05
2022-09-07T11:57:15.093Z,100394.69
2022-09-07T11:59:48.989Z,100393.13
2022-09-07T12:02:57.723Z,100391.86
2022-09-07T12:05:23.661Z,100388.17
2022-09-07T12:08:09.404Z,100382.30
2022-09-07T12:10:54.900Z,100381.79
2022-09-07T12:13:32.948Z,100374.76
2022-09-07T12:16:10.160Z,100375.38
2022-09-07T12:18:53.038Z,100373.55
2022-09-07T12:21:32.649Z,100372.72
2022-09-07T12:24:00.312Z,100370.38
2022-09-07T12:26:34.428Z,100367.23
2022-09-07T12:29:02.076Z,100367.73
2022-09-07T12:31:57.292Z,100364.09
2022-09-07T12:34:32.354Z,100366.27
2022-09-07T12:37:22.971Z,100366.14
2022-09-07T12:39:50.950Z,100369.39
2022-09-07T12:42:39.226Z,100368.06
2022-09-07T12:45:25.777Z,100361.31
2022-09-07T12:47:57.912Z,100356.45
2022-09-07T12:50:34.191Z,100355.39
2022-09-07T12:53:16.531Z,100353.90
2022-09-07T12:58:56.382Z,100348.66
2022-09-07T13:01:24.283Z,100344.83
2022-09-07T13:04:10.551Z,100348.13
2022-09-07T13:09:32.714Z,100344.84
2022-09-07T13:12:01.512Z,100342.71
2022-09-07T13:14:29.761Z,100340.52
2022-09-07T13:17:16.680Z,100344.58
2022-09-07T13:19:50.456Z,100345.18
2022-09-07T13:22:30.365Z,100344.54
2022-09-07T13:25:00.046Z,100340.05
2022-09-07T13:27:27.804Z,100338.16
2022-09-07T13:29:57.582Z,100339.98
2022-09-07T13:35:21.592Z,100333.52
2022-09-07T13:37:52.360Z,100330.00
2022-09-07T13:40:40.653Z,100326.95
2022-09-07T13:43:15.823Z,100324.05
2022-09-07T13:45:55.609Z,100323.82
2022-09-07T13:48:46.542Z,100320.21
2022-09-07T13:51:26.393Z,100320.88
2022-09-07T13:54:23.331Z,100314.82
2022-09-07T13:56:57.144Z,100314.19
2022-09-07T13:59:31.430Z,100309.61
2022-09-07T14:01:59.867Z,100303.68
2022-09-07T14:04:30.130Z,100303.37
2022-09-07T14:07:06.792Z,100304.85
2022-09-07T14:09:35.120Z,100306.45
2022-09-07T14:12:04.377Z,100306.23
2022-09-07T14:14:34.835Z,100301.54
2022-09-07T14:17:06.235Z,100294.94
2022-09-07T14:19:57.466Z,100296.17
2022-09-07T14:22:33.097Z,100296.63
2022-09-07T14:25:02.126Z,100296.73
2022-09-07T14:27:34.896Z,100293.52
2022-09-07T14:30:14.898Z,100292.50
2022-09-07T14:32:43.941Z,100291.33
2022-09-07T14:35:17.042Z,100289.67
2022-09-07T14:37:46.186Z,100284.39
2022-09-07T14:40:20.811Z,100282.27
2022-09-07T14:42:53.102Z,100280.46
2022-09-07T14:45:23.701Z,100280.98
2022-09-07T14:47:53.181Z,100273.09
2022-09-07T14:50:23.205Z,100273.44
2022-09-07T14:55:43.016Z,100280.98
2022-09-07T14:58:14.033Z,100280.59
2022-09-07T15:00:43.127Z,100284.26
2022-09-07T15:03:29.929Z,100278.81
2022-09-07T15:06:01.199Z,100279.77
2022-09-07T15:08:38.671Z,100278.07
2022-09-07T15:14:09.654Z,100278.42
2022-09-07T15:16:39.917Z,100276.86
2022-09-07T15:19:17.020Z,100272.87
2022-09-07T15:21:45.699Z,100273.14
2022-09-07T15:24:13.695Z,100268.85
2022-09-07T15:27:08.255Z,100267.95
2022-09-07T15:29:35.984Z,100270.13
2022-09-07T15:32:09.463Z,100271.94
2022-09-07T15:34:37.363Z,100274.96
2022-09-07T15:38:00.945Z,100275.39
2022-09-07T15:39:53.427Z,100272.54
2022-09-07T15:45:09.722Z,100264.30
2022-09-07T15:47:50.596Z,100269.35
2022-09-07T15:50:23.180Z,100270.21
2022-09-07T15:52:51.835Z,100269.43
2022-09-07T15:55:19.533Z,100269.17
2022-09-07T15:57:49.204Z,100264.04
2022-09-07T16:00:19.586Z,100264.37
2022-09-07T16:03:07.427Z,100261.34
2022-09-07T16:05:39.953Z,100261.95
2022-09-07T16:11:05.769Z,100260.96
2022-09-07T16:13:34.974Z,100261.39
2022-09-07T16:16:04.913Z,100255.35
2022-09-07T16:18:33.818Z,100262.94
2022-09-07T16:21:11.916Z,100267.11
2022-09-07T16:23:42.076Z,100265.94
2022-09-07T16:26:10.697Z,100267.63
2022-09-07T16:28:40.223Z,100266.97
2022-09-07T16:31:10.032Z,100268.94
2022-09-07T16:33:38.158Z,100269.45
2022-09-07T16:36:09.197Z,100265.64
2022-09-07T16:38:45.545Z,100265.67
2022-09-07T16:41:26.533Z,100261.70
2022-09-07T16:43:54.884Z,100263.89
2022-09-07T16:46:24.150Z,100265.65
2022-09-07T16:48:52.281Z,100262.34
2022-09-07T16:51:22.070Z,100263.16
2022-09-07T16:53:51.126Z,100262.09
2022-09-07T16:56:20.595Z,100265.31
2022-09-07T16:58:50.271Z,100262.10
2022-09-07T17:01:19.723Z,100264.23
2022-09-07T17:03:49.567Z,100263.06
2022-09-07T17:06:18.710Z,100269.64
2022-09-07T17:08:47.243Z,100267.51
2022-09-07T17:11:20.421Z,100269.95
2022-09-07T17:13:48.690Z,100275.98
2022-09-07T17:16:19.822Z,100275.94
2022-09-07T17:21:37.848Z,100278.03
2022-09-07T17:24:06.545Z,100281.98
2022-09-07T17:26:34.684Z,100286.38
2022-09-07T17:29:02.863Z,100284.62
2022-09-07T17:34:20.130Z,100295.51
2022-09-07T17:36:48.705Z,100291.42
2022-09-07T17:39:18.619Z,100293.90
2022-09-07T17:41:48.437Z,100292.73
2022-09-07T17:44:17.267Z,100291.81
2022-09-07T17:46:45.056Z,100293.95
2022-09-07T17:49:14.545Z,100294.17
2022-09-07T17:51:42.955Z,100291.88
2022-09-07T17:54:12.035Z,100290.83
2022-09-07T17:56:41.011Z,100293.73
2022-09-07T18:01:58.016Z,100301.99
2022-09-07T18:04:26.197Z,100306.24
2022-09-07T18:06:54.570Z,100307.06
2022-09-07T18:09:22.412Z,100308.14
2022-09-07T18:11:51.270Z,100309.71
2022-09-07T18:14:19.334Z,100308.23
2022-09-07T18:16:49.267Z,100304.80
2022-09-07T18:19:18.287Z,100305.84
2022-09-07T18:21:48.067Z,100304.86
2022-09-07T18:24:20.879Z,100304.66
2022-09-07T18:26:50.934Z,100310.08
2022-09-07T18:29:31.184Z,100309.96
2022-09-07T18:32:03.050Z,100315.77
2022-09-07T18:34:31.930Z,100316.89
2022-09-07T18:37:01.157Z,100315.12
2022-09-07T18:39:29.431Z,100315.23
2022-09-07T18:41:57.379Z,100322.77
2022-09-07T18:47:22.142Z,100322.91
2022-09-07T18:49:55.682Z,100317.02
2022-09-07T18:55:11.924Z,100313.55
2022-09-07T18:57:40.562Z,100315.30
2022-09-07T19:00:09.314Z,100317.30
2022-09-07T19:02:37.172Z,100316.15
2022-09-07T19:07:53.713Z,100312.88
2022-09-07T19:10:22.041Z,100320.34
2022-09-07T19:12:50.035Z,100319.96
2022-09-07T19:15:17.700Z,100322.47
2022-09-07T19:17:45.511Z,100323.63
2022-09-07T19:20:13.989Z,100321.10
2022-09-07T19:22:43.165Z,100320.70
2022-09-07T19:25:11.628Z,100319.20
2022-09-07T19:27:39.509Z,100318.60
2022-09-07T19:30:07.751Z,100319.05
2022-09-07T19:32:36.149Z,100316.80
2022-09-07T19:35:04.239Z,100317.64
2022-09-07T19:37:33.017Z,100315.91
2022-09-07T19:40:02.019Z,100315.61
2022-09-07T19:42:30.465Z,100313.45
2022-09-07T19:44:58.425Z,100309.36
2022-09-07T19:47:26.150Z,100310.52
2022-09-07T19:49:54.100Z,100306.87
2022-09-07T19:52:22.480Z,100304.73
2022-09-07T19:54:50.557Z,100306.35
2022-09-07T19:57:18.376Z,100306.77
2022-09-07T19:59:47.559Z,100304.55
2022-09-07T20:02:15.575Z,100304.17
2022-09-07T20:04:44.242Z,100305.69
2022-09-07T20:07:12.543Z,100306.64
2022-09-07T20:09:40.467Z,100307.45
2022-09-07T20:12:08.884Z,100308.02
2022-09-07T20:14:36.859Z,100307.61
2022-09-07T20:17:04.739Z,100313.94
2022-09-07T20:19:32.505Z,100314.23
2022-09-07T20:22:00.412Z,100315.38
2022-09-07T20:24:28.505Z,100315.83
2022-09-07T20:26:56.521Z,100316.33
2022-09-07T20:29:27.743Z,100312.73
2022-09-07T20:32:00.460Z,100309.66
2022-09-07T20:34:29.189Z,100312.24
2022-09-07T20:36:57.445Z,100308.66
2022-09-07T20:39:25.770Z,100309.52
2022-09-07T20:41:53.831Z,100310.09
2022-09-07T20:44:21.812Z,100308.02
2022-09-07T20:46:50.290Z,100307.29
2022-09-07T20:49:18.022Z,100309.57
2022-09-07T20:51:45.947Z,100313.23
2022-09-07T20:54:14.085Z,100311.73
2022-09-07T20:56:42.270Z,100313.61
2022-09-07T20:59:10.004Z,100314.56
2022-09-07T21:01:38.243Z,100315.36
2022-09-07T21:04:06.289Z,100315.60
2022-09-07T21:06:34.704Z,100317.23
2022-09-07T21:09:02.561Z,100313.10
2022-09-07T21:11:34.574Z,100310.48
2022-09-07T21:14:07.345Z,100312.07
2022-09-07T21:16:35.635Z,100310.90
2022-09-07T21:19:05.074Z,100316.45
2022-09-07T21:21:38.872Z,100317.02
2022-09-07T21:24:21.737Z,100314.05
2022-09-07T21:26:50.259Z,100311.04
2022-09-07T21:29:18.833Z,100309.17
2022-09-07T21:31:47.116Z,100306.04
2022-09-07T21:34:15.723Z,100305.71
2022-09-07T21:36:44.294Z,100305.95
2022-09-07T21:39:14.648Z,100306.95
2022-09-07T21:41:43.591Z,100301.45
2022-09-07T21:44:13.417Z,100303.39
2022-09-07T21:46:41.585Z,100300.52
2022-09-07T21:49:09.754Z,100300.15
2022-09-07T21:51:38.190Z,100299.86
2022-09-07T21:54:06.546Z,100302.41
2022-09-07T21:56:34.291Z,100296.25
2022-09-07T21:59:02.645Z,100295.11
2022-09-07T22:01:31.650Z,100297.40
2022-09-07T22:04:03.693Z,100301.35
2022-09-07T22:06:32.667Z,100304.38
2022-09-07T22:09:01.891Z,100309.06
2022-09-07T22:11:30.554Z,100302.52
2022-09-07T22:13:59.320Z,100299.02
2022-09-07T22:16:27.640Z,100294.86
2022-09-07T22:18:56.340Z,100292.73
2022-09-07T22:21:25.647Z,100293.30
2022-09-07T22:23:58.165Z,100289.77
2022-09-07T22:26:27.049Z,100290.95
2022-09-07T22:28:55.474Z,100288.39
2022-09-07T22:31:24.579Z,100285.09
2022-09-07T22:33:53.129Z,100284.30
2022-09-07T22:36:22.687Z,100283.31
2022-09-07T22:38:52.318Z,100280.46
2022-09-07T22:41:22.300Z,100284.08
2022-09-07T22:43:51.199Z,100278.36
2022-09-07T22:46:20.392Z,100276.61
2022-09-07T22:48:48.958Z,100270.95
2022-09-07T22:51:17.409Z,100272.49
2022-09-07T22:53:45.316Z,100265.86
2022-09-07T22:56:14.506Z,100269.03
2022-09-07T22:58:46.226Z,100273.36
2022-09-07T23:01:14.282Z,100269.44
2022-09-07T23:03:43.624Z,100274.79
2022-09-07T23:06:19.377Z,100276.00
2022-09-07T23:08:47.400Z,100275.70
2022-09-07T23:11:15.616Z,100273.47
2022-09-07T23:13:43.956Z,100272.51
2022-09-07T23:16:12.274Z,100269.73
2022-09-07T23:18:43.277Z,100264.95
2022-09-07T23:21:11.272Z,100265.31
2022-09-07T23:23:39.433Z,100263.66
2022-09-07T23:26:07.434Z,100264.59
2022-09-07T23:28:35.306Z,100263.83
2022-09-07T23:31:03.480Z,100263.41
2022-09-07T23:33:31.975Z,100262.73
2022-09-07T23:36:01.347Z,100264.30
2022-09-07T23:38:29.918Z,100263.81
2022-09-07T23:40:58.849Z,100264.88
2022-09-07T23:43:27.739Z,100262.58
2022-09-07T23:45:55.890Z,100258.79
2022-09-07T23:48:23.764Z,100259.23
2022-09-07T23:50:53.308Z,100256.59
2022-09-07T23:53:22.262Z,100258.67
2022-09-07T23:55:51.879Z,100256.80
2022-09-07T23:58:20.606Z,100253.52
